sensor_id;sensor_type;location;lat;lon;timestamp;pressure;altitude;pressure_sealevel;temperature;humidity
10652;BME280;5374;42.742;23.266;2023-02-20T00:01:57;95772.97;;;10.01;62.78
10652;BME280;5374;42.742;23.266;2023-02-20T00:04:47;95762.50;;;9.94;62.86
10652;BME280;5374;42.742;23.266;2023-02-20T00:07:34;95753.78;;;9.93;62.97
10652;BME280;5374;42.742;23.266;2023-02-20T00:10:21;95757.59;;;9.86;63.47
10652;BME280;5374;42.742;23.266;2023-02-20T00:13:08;95745.91;;;9.70;64.18
10652;BME280;5374;42.742;23.266;2023-02-20T00:15:56;95761.41;;;9.78;64.35
10652;BME280;5374;42.742;23.266;2023-02-20T00:18:43;95749.44;;;9.76;64.55
10652;BME280;5374;42.742;23.266;2023-02-20T00:21:32;95756.81;;;9.74;64.90
10652;BME280;5374;42.742;23.266;2023-02-20T00:24:19;95762.34;;;9.72;65.39
10652;BME280;5374;42.742;23.266;2023-02-20T00:27:08;95744.09;;;9.59;65.56
10652;BME280;5374;42.742;23.266;2023-02-20T00:29:55;95756.97;;;9.67;65.70
10652;BME280;5374;42.742;23.266;2023-02-20T00:32:42;95752.94;;;9.65;65.97
10652;BME280;5374;42.742;23.266;2023-02-20T00:35:29;95742.34;;;9.65;66.48
10652;BME280;5374;42.742;23.266;2023-02-20T00:38:18;95698.19;;;9.30;66.50
10652;BME280;5374;42.742;23.266;2023-02-20T00:41:05;95743.09;;;9.48;67.10
10652;BME280;5374;42.742;23.266;2023-02-20T00:43:52;95754.69;;;9.59;66.77
10652;BME280;5374;42.742;23.266;2023-02-20T00:46:39;95771.28;;;9.54;66.88
10652;BME280;5374;42.742;23.266;2023-02-20T00:49:26;95773.59;;;9.51;67.04
10652;BME280;5374;42.742;23.266;2023-02-20T00:52:13;95774.41;;;9.51;66.92
10652;BME280;5374;42.742;23.266;2023-02-20T00:55:01;95775.38;;;9.45;67.39
10652;BME280;5374;42.742;23.266;2023-02-20T00:57:49;95795.53;;;9.46;67.55
10652;BME280;5374;42.742;23.266;2023-02-20T01:00:36;95800.38;;;9.38;67.93
10652;BME280;5374;42.742;23.266;2023-02-20T01:03:23;95809.13;;;9.38;68.11
10652;BME280;5374;42.742;23.266;2023-02-20T01:06:10;95790.94;;;9.30;68.15
10652;BME280;5374;42.742;23.266;2023-02-20T01:08:57;95794.03;;;9.27;68.61
10652;BME280;5374;42.742;23.266;2023-02-20T01:11:46;95798.78;;;9.25;68.80
10652;BME280;5374;42.742;23.266;2023-02-20T01:14:33;95799.09;;;9.29;68.78
10652;BME280;5374;42.742;23.266;2023-02-20T01:17:20;95796.00;;;9.32;68.92
10652;BME280;5374;42.742;23.266;2023-02-20T01:20:08;95801.53;;;9.30;69.11
10652;BME280;5374;42.742;23.266;2023-02-20T01:22:55;95817.06;;;9.26;69.29
10652;BME280;5374;42.742;23.266;2023-02-20T01:25:42;95816.31;;;9.26;69.50
10652;BME280;5374;42.742;23.266;2023-02-20T01:28:31;95806.75;;;9.25;69.66
10652;BME280;5374;42.742;23.266;2023-02-20T01:31:18;95815.25;;;9.27;70.00
10652;BME280;5374;42.742;23.266;2023-02-20T01:34:05;95813.31;;;9.22;70.10
10652;BME280;5374;42.742;23.266;2023-02-20T01:36:55;95821.00;;;9.36;70.22
10652;BME280;5374;42.742;23.266;2023-02-20T01:39:42;95817.53;;;9.35;70.70
10652;BME280;5374;42.742;23.266;2023-02-20T01:42:31;95807.53;;;9.37;71.12
10652;BME280;5374;42.742;23.266;2023-02-20T01:45:33;95823.88;;;9.46;70.88
10652;BME280;5374;42.742;23.266;2023-02-20T01:48:22;95825.63;;;9.40;71.66
10652;BME280;5374;42.742;23.266;2023-02-20T01:51:10;95832.53;;;9.41;71.90
10652;BME280;5374;42.742;23.266;2023-02-20T01:53:57;95836.91;;;9.47;72.28
10652;BME280;5374;42.742;23.266;2023-02-20T01:56:44;95839.66;;;9.52;72.26
10652;BME280;5374;42.742;23.266;2023-02-20T01:59:35;95828.38;;;9.45;72.46
10652;BME280;5374;42.742;23.266;2023-02-20T02:02:27;95838.16;;;9.56;73.07
10652;BME280;5374;42.742;23.266;2023-02-20T02:05:17;95831.81;;;9.57;73.14
10652;BME280;5374;42.742;23.266;2023-02-20T02:08:06;95836.66;;;9.60;72.63
10652;BME280;5374;42.742;23.266;2023-02-20T02:10:59;95828.69;;;9.49;73.40
10652;BME280;5374;42.742;23.266;2023-02-20T02:13:47;95826.75;;;9.44;73.75
10652;BME280;5374;42.742;23.266;2023-02-20T02:16:38;95835.59;;;9.50;73.53
10652;BME280;5374;42.742;23.266;2023-02-20T02:19:52;95834.94;;;9.43;72.82
10652;BME280;5374;42.742;23.266;2023-02-20T02:23:09;95843.59;;;9.38;72.26
10652;BME280;5374;42.742;23.266;2023-02-20T02:26:14;95858.22;;;9.29;72.02
10652;BME280;5374;42.742;23.266;2023-02-20T02:32:39;95842.41;;;8.87;73.01
10652;BME280;5374;42.742;23.266;2023-02-20T02:36:00;95853.94;;;8.93;74.16
10652;BME280;5374;42.742;23.266;2023-02-20T02:38:59;95798.53;;;8.56;75.23
10652;BME280;5374;42.742;23.266;2023-02-20T02:41:53;95845.88;;;8.76;75.86
10652;BME280;5374;42.742;23.266;2023-02-20T02:44:46;95852.38;;;8.62;77.21
10652;BME280;5374;42.742;23.266;2023-02-20T02:47:42;95854.13;;;8.56;77.57
10652;BME280;5374;42.742;23.266;2023-02-20T02:50:33;95863.41;;;8.59;78.07
10652;BME280;5374;42.742;23.266;2023-02-20T02:53:22;95865.38;;;8.52;78.35
10652;BME280;5374;42.742;23.266;2023-02-20T02:56:10;95867.69;;;8.60;77.75
10652;BME280;5374;42.742;23.266;2023-02-20T02:59:11;95867.91;;;8.58;77.87
10652;BME280;5374;42.742;23.266;2023-02-20T03:02:02;95871.47;;;8.52;78.38
10652;BME280;5374;42.742;23.266;2023-02-20T03:04:52;95871.13;;;8.49;79.09
10652;BME280;5374;42.742;23.266;2023-02-20T03:07:43;95841.09;;;8.25;79.09
10652;BME280;5374;42.742;23.266;2023-02-20T03:10:32;95885.84;;;8.45;79.36
10652;BME280;5374;42.742;23.266;2023-02-20T03:13:19;95868.09;;;8.34;78.76
10652;BME280;5374;42.742;23.266;2023-02-20T03:16:07;95894.44;;;8.40;78.74
10652;BME280;5374;42.742;23.266;2023-02-20T03:18:57;95879.75;;;8.26;78.38
10652;BME280;5374;42.742;23.266;2023-02-20T03:21:47;95838.31;;;7.90;78.31
10652;BME280;5374;42.742;23.266;2023-02-20T03:24:37;95877.03;;;8.14;78.64
10652;BME280;5374;42.742;23.266;2023-02-20T03:27:43;95890.19;;;8.21;78.39
10652;BME280;5374;42.742;23.266;2023-02-20T03:30:36;95838.25;;;7.78;78.25
10652;BME280;5374;42.742;23.266;2023-02-20T03:33:30;95886.47;;;7.92;77.95
10652;BME280;5374;42.742;23.266;2023-02-20T03:36:39;95903.38;;;8.09;77.95
10652;BME280;5374;42.742;23.266;2023-02-20T03:39:48;95895.00;;;8.12;77.59
10652;BME280;5374;42.742;23.266;2023-02-20T03:43:00;95855.34;;;7.76;78.69
10652;BME280;5374;42.742;23.266;2023-02-20T03:46:10;95887.75;;;7.89;78.17
10652;BME280;5374;42.742;23.266;2023-02-20T03:49:02;95850.88;;;7.58;78.49
10652;BME280;5374;42.742;23.266;2023-02-20T03:51:50;95918.56;;;7.96;78.67
10652;BME280;5374;42.742;23.266;2023-02-20T03:54:38;95929.16;;;7.96;78.46
10652;BME280;5374;42.742;23.266;2023-02-20T03:57:28;95872.84;;;7.59;78.07
10652;BME280;5374;42.742;23.266;2023-02-20T04:00:20;95888.97;;;7.69;78.26
10652;BME280;5374;42.742;23.266;2023-02-20T04:03:12;95912.25;;;7.78;78.42
10652;BME280;5374;42.742;23.266;2023-02-20T04:06:04;95883.31;;;7.47;79.52
10652;BME280;5374;42.742;23.266;2023-02-20T04:08:55;95898.09;;;7.54;80.60
10652;BME280;5374;42.742;23.266;2023-02-20T04:11:48;95909.91;;;7.70;80.01
10652;BME280;5374;42.742;23.266;2023-02-20T04:14:37;95884.88;;;7.73;80.40
10652;BME280;5374;42.742;23.266;2023-02-20T04:17:29;95927.91;;;7.98;81.11
10652;BME280;5374;42.742;23.266;2023-02-20T04:20:18;95867.13;;;7.62;81.22
10652;BME280;5374;42.742;23.266;2023-02-20T04:23:08;95933.19;;;7.80;81.99
10652;BME280;5374;42.742;23.266;2023-02-20T04:26:00;95905.09;;;7.67;81.58
10652;BME280;5374;42.742;23.266;2023-02-20T04:28:48;95897.38;;;7.66;81.86
10652;BME280;5374;42.742;23.266;2023-02-20T04:31:35;95900.66;;;7.61;81.87
10652;BME280;5374;42.742;23.266;2023-02-20T04:34:26;95897.22;;;7.61;81.63
10652;BME280;5374;42.742;23.266;2023-02-20T04:37:15;95942.97;;;7.98;80.86
10652;BME280;5374;42.742;23.266;2023-02-20T04:40:05;95947.59;;;8.02;80.10
10652;BME280;5374;42.742;23.266;2023-02-20T04:42:52;95908.75;;;7.66;79.73
10652;BME280;5374;42.742;23.266;2023-02-20T04:45:39;95886.44;;;7.62;79.59
10652;BME280;5374;42.742;23.266;2023-02-20T04:48:26;95928.88;;;7.85;78.95
10652;BME280;5374;42.742;23.266;2023-02-20T04:51:15;95912.31;;;7.72;78.55
10652;BME280;5374;42.742;23.266;2023-02-20T04:54:04;95950.75;;;7.93;78.00
10652;BME280;5374;42.742;23.266;2023-02-20T04:56:51;95945.66;;;7.91;77.45
10652;BME280;5374;42.742;23.266;2023-02-20T04:59:39;95883.03;;;7.37;76.83
10652;BME280;5374;42.742;23.266;2023-02-20T05:02:26;95895.16;;;7.44;76.09
10652;BME280;5374;42.742;23.266;2023-02-20T05:05:17;95969.31;;;7.68;75.58
10652;BME280;5374;42.742;23.266;2023-02-20T05:08:07;95886.25;;;6.96;74.39
10652;BME280;5374;42.742;23.266;2023-02-20T05:10:54;95974.03;;;7.66;73.95
10652;BME280;5374;42.742;23.266;2023-02-20T05:13:41;95928.56;;;7.32;73.19
10652;BME280;5374;42.742;23.266;2023-02-20T05:16:28;95927.13;;;7.36;72.27
10652;BME280;5374;42.742;23.266;2023-02-20T05:19:16;95990.38;;;7.74;71.63
10652;BME280;5374;42.742;23.266;2023-02-20T05:22:08;95916.63;;;7.05;71.23
10652;BME280;5374;42.742;23.266;2023-02-20T05:25:05;95991.19;;;7.75;70.41
10652;BME280;5374;42.742;23.266;2023-02-20T05:27:53;95943.13;;;7.41;69.96
10652;BME280;5374;42.742;23.266;2023-02-20T05:30:40;95976.78;;;7.71;69.60
10652;BME280;5374;42.742;23.266;2023-02-20T05:33:27;95967.66;;;7.48;68.97
10652;BME280;5374;42.742;23.266;2023-02-20T05:36:15;96027.31;;;8.24;68.29
10652;BME280;5374;42.742;23.266;2023-02-20T05:39:03;96021.06;;;9.56;64.80
10652;BME280;5374;42.742;23.266;2023-02-20T05:41:51;96025.50;;;11.91;57.51
10652;BME280;5374;42.742;23.266;2023-02-20T05:44:38;96007.78;;;13.33;52.07
10652;BME280;5374;42.742;23.266;2023-02-20T05:47:25;96023.59;;;12.91;51.56
10652;BME280;5374;42.742;23.266;2023-02-20T05:50:17;96012.19;;;11.75;54.64
10652;BME280;5374;42.742;23.266;2023-02-20T05:53:04;96046.81;;;11.46;56.18
10652;BME280;5374;42.742;23.266;2023-02-20T05:55:52;96037.78;;;11.02;57.64
10652;BME280;5374;42.742;23.266;2023-02-20T05:58:42;96030.50;;;10.69;58.59
10652;BME280;5374;42.742;23.266;2023-02-20T06:01:30;96054.22;;;10.87;58.91
10652;BME280;5374;42.742;23.266;2023-02-20T06:04:18;96044.28;;;10.94;58.92
10652;BME280;5374;42.742;23.266;2023-02-20T06:07:07;96047.13;;;11.05;57.82
10652;BME280;5374;42.742;23.266;2023-02-20T06:09:57;96032.16;;;11.60;55.97
10652;BME280;5374;42.742;23.266;2023-02-20T06:12:45;96057.38;;;13.29;52.14
10652;BME280;5374;42.742;23.266;2023-02-20T06:15:34;96053.16;;;13.92;49.40
10652;BME280;5374;42.742;23.266;2023-02-20T06:18:22;96014.53;;;13.67;48.59
10652;BME280;5374;42.742;23.266;2023-02-20T06:21:11;96050.06;;;14.99;45.57
10652;BME280;5374;42.742;23.266;2023-02-20T06:24:00;96067.91;;;16.37;42.53
10652;BME280;5374;42.742;23.266;2023-02-20T06:26:49;96020.84;;;17.40;39.10
10652;BME280;5374;42.742;23.266;2023-02-20T06:29:38;96081.31;;;18.50;37.96
10652;BME280;5374;42.742;23.266;2023-02-20T06:32:28;96091.66;;;19.38;36.40
10652;BME280;5374;42.742;23.266;2023-02-20T06:35:16;96098.44;;;19.11;36.46
10652;BME280;5374;42.742;23.266;2023-02-20T06:38:04;96089.09;;;21.28;32.91
10652;BME280;5374;42.742;23.266;2023-02-20T06:40:51;96098.28;;;21.68;32.15
10652;BME280;5374;42.742;23.266;2023-02-20T06:43:38;96112.16;;;20.79;32.95
10652;BME280;5374;42.742;23.266;2023-02-20T06:46:25;96107.00;;;19.61;33.47
10652;BME280;5374;42.742;23.266;2023-02-20T06:49:14;96107.50;;;18.05;35.83
10652;BME280;5374;42.742;23.266;2023-02-20T06:52:01;96110.25;;;17.46;37.47
10652;BME280;5374;42.742;23.266;2023-02-20T06:54:48;96120.19;;;16.45;38.79
10652;BME280;5374;42.742;23.266;2023-02-20T06:57:37;96115.06;;;15.72;40.41
10652;BME280;5374;42.742;23.266;2023-02-20T07:00:25;96124.75;;;15.99;40.23
10652;BME280;5374;42.742;23.266;2023-02-20T07:03:13;96103.72;;;17.02;38.33
10652;BME280;5374;42.742;23.266;2023-02-20T07:06:01;96130.28;;;16.99;37.69
10652;BME280;5374;42.742;23.266;2023-02-20T07:08:49;96122.13;;;17.29;37.07
10652;BME280;5374;42.742;23.266;2023-02-20T07:11:36;96107.25;;;16.83;37.23
10652;BME280;5374;42.742;23.266;2023-02-20T07:14:23;96132.75;;;16.55;37.70
10652;BME280;5374;42.742;23.266;2023-02-20T07:17:10;96136.97;;;17.17;37.33
10652;BME280;5374;42.742;23.266;2023-02-20T07:19:57;96135.34;;;18.19;35.52
10652;BME280;5374;42.742;23.266;2023-02-20T07:22:50;96159.00;;;18.17;34.64
10652;BME280;5374;42.742;23.266;2023-02-20T07:25:37;96144.84;;;17.57;35.33
10652;BME280;5374;42.742;23.266;2023-02-20T07:28:24;96158.78;;;16.24;37.36
10652;BME280;5374;42.742;23.266;2023-02-20T07:31:11;96154.47;;;15.20;39.01
10652;BME280;5374;42.742;23.266;2023-02-20T07:33:58;96156.16;;;14.42;40.78
10652;BME280;5374;42.742;23.266;2023-02-20T07:36:45;96163.31;;;13.82;41.86
10652;BME280;5374;42.742;23.266;2023-02-20T07:39:34;96151.09;;;13.16;42.93
10652;BME280;5374;42.742;23.266;2023-02-20T07:42:21;96154.28;;;12.96;43.82
10652;BME280;5374;42.742;23.266;2023-02-20T07:45:09;96148.94;;;12.74;44.00
10652;BME280;5374;42.742;23.266;2023-02-20T07:47:57;96151.50;;;12.69;44.25
10652;BME280;5374;42.742;23.266;2023-02-20T07:50:44;96134.59;;;12.58;44.35
10652;BME280;5374;42.742;23.266;2023-02-20T07:53:31;96147.50;;;12.50;45.14
10652;BME280;5374;42.742;23.266;2023-02-20T07:56:20;96145.97;;;12.54;44.48
10652;BME280;5374;42.742;23.266;2023-02-20T07:59:08;96141.63;;;12.48;44.65
10652;BME280;5374;42.742;23.266;2023-02-20T08:01:55;96118.44;;;12.48;44.37
10652;BME280;5374;42.742;23.266;2023-02-20T08:04:45;96145.16;;;12.53;44.34
10652;BME280;5374;42.742;23.266;2023-02-20T08:07:33;96154.94;;;12.64;43.71
10652;BME280;5374;42.742;23.266;2023-02-20T08:10:23;96144.19;;;12.59;43.58
10652;BME280;5374;42.742;23.266;2023-02-20T08:13:12;96109.53;;;12.38;43.70
10652;BME280;5374;42.742;23.266;2023-02-20T08:15:59;96142.44;;;12.65;43.20
10652;BME280;5374;42.742;23.266;2023-02-20T08:18:46;96139.00;;;12.70;43.21
10652;BME280;5374;42.742;23.266;2023-02-20T08:21:33;96125.41;;;12.32;43.31
10652;BME280;5374;42.742;23.266;2023-02-20T08:24:20;96162.66;;;12.66;44.06
10652;BME280;5374;42.742;23.266;2023-02-20T08:27:08;96168.03;;;12.88;43.42
10652;BME280;5374;42.742;23.266;2023-02-20T08:29:56;96122.22;;;12.91;43.15
10652;BME280;5374;42.742;23.266;2023-02-20T08:32:44;96160.22;;;13.20;42.09
10652;BME280;5374;42.742;23.266;2023-02-20T08:35:31;96160.28;;;13.25;42.21
10652;BME280;5374;42.742;23.266;2023-02-20T08:38:25;96167.25;;;13.26;41.75
10652;BME280;5374;42.742;23.266;2023-02-20T08:41:13;96164.50;;;13.21;41.63
10652;BME280;5374;42.742;23.266;2023-02-20T08:44:00;96159.75;;;13.23;42.13
10652;BME280;5374;42.742;23.266;2023-02-20T08:46:50;96158.78;;;13.34;41.64
10652;BME280;5374;42.742;23.266;2023-02-20T08:49:37;96156.69;;;13.36;40.79
10652;BME280;5374;42.742;23.266;2023-02-20T08:52:24;96149.22;;;13.38;41.85
10652;BME280;5374;42.742;23.266;2023-02-20T08:55:12;96138.81;;;13.37;42.68
10652;BME280;5374;42.742;23.266;2023-02-20T08:57:59;96138.69;;;13.48;40.98
10652;BME280;5374;42.742;23.266;2023-02-20T09:00:46;96145.16;;;13.52;42.27
10652;BME280;5374;42.742;23.266;2023-02-20T09:03:34;96130.75;;;13.53;41.31
10652;BME280;5374;42.742;23.266;2023-02-20T09:06:23;96122.88;;;13.68;40.71
10652;BME280;5374;42.742;23.266;2023-02-20T09:09:10;96113.78;;;13.64;40.24
10652;BME280;5374;42.742;23.266;2023-02-20T09:11:57;96102.72;;;13.56;40.56
10652;BME280;5374;42.742;23.266;2023-02-20T09:14:45;96116.25;;;13.71;40.56
10652;BME280;5374;42.742;23.266;2023-02-20T09:17:32;96111.09;;;13.64;40.58
10652;BME280;5374;42.742;23.266;2023-02-20T09:20:21;96104.28;;;13.79;40.76
10652;BME280;5374;42.742;23.266;2023-02-20T09:23:09;96113.41;;;13.83;40.54
10652;BME280;5374;42.742;23.266;2023-02-20T09:25:56;96118.97;;;13.76;40.54
10652;BME280;5374;42.742;23.266;2023-02-20T09:28:43;96119.59;;;13.61;40.03
10652;BME280;5374;42.742;23.266;2023-02-20T09:31:30;96120.97;;;13.64;40.78
10652;BME280;5374;42.742;23.266;2023-02-20T09:34:17;96119.53;;;13.51;40.45
10652;BME280;5374;42.742;23.266;2023-02-20T09:37:06;96133.22;;;13.38;40.89
10652;BME280;5374;42.742;23.266;2023-02-20T09:39:54;96133.66;;;13.52;41.48
10652;BME280;5374;42.742;23.266;2023-02-20T09:42:49;96125.50;;;13.63;41.58
10652;BME280;5374;42.742;23.266;2023-02-20T09:45:45;96117.16;;;13.55;41.26
10652;BME280;5374;42.742;23.266;2023-02-20T09:48:42;96137.41;;;13.56;40.47
10652;BME280;5374;42.742;23.266;2023-02-20T09:51:35;96125.91;;;13.77;41.00
10652;BME280;5374;42.742;23.266;2023-02-20T09:54:30;96126.31;;;13.91;39.94
10652;BME280;5374;42.742;23.266;2023-02-20T09:57:22;96127.78;;;13.77;40.88
10652;BME280;5374;42.742;23.266;2023-02-20T10:00:19;96133.31;;;13.97;40.25
10652;BME280;5374;42.742;23.266;2023-02-20T10:03:17;96124.69;;;13.90;39.94
10652;BME280;5374;42.742;23.266;2023-02-20T10:06:14;96114.31;;;13.93;39.92
10652;BME280;5374;42.742;23.266;2023-02-20T10:09:03;96126.44;;;14.06;38.60
10652;BME280;5374;42.742;23.266;2023-02-20T10:12:02;96127.63;;;14.20;39.55
10652;BME280;5374;42.742;23.266;2023-02-20T10:15:02;96120.69;;;14.19;39.16
10652;BME280;5374;42.742;23.266;2023-02-20T10:17:58;96119.47;;;14.05;38.86
10652;BME280;5374;42.742;23.266;2023-02-20T10:20:53;96099.72;;;14.06;38.58
10652;BME280;5374;42.742;23.266;2023-02-20T10:23:46;96110.00;;;14.24;39.17
10652;BME280;5374;42.742;23.266;2023-02-20T10:26:37;96108.13;;;14.25;38.66
10652;BME280;5374;42.742;23.266;2023-02-20T10:29:39;96098.25;;;14.25;38.21
10652;BME280;5374;42.742;23.266;2023-02-20T10:32:29;96099.22;;;14.46;38.20
10652;BME280;5374;42.742;23.266;2023-02-20T10:35:22;96082.41;;;14.46;38.28
10652;BME280;5374;42.742;23.266;2023-02-20T10:38:13;96090.22;;;14.57;38.38
10652;BME280;5374;42.742;23.266;2023-02-20T10:41:05;96085.59;;;14.43;37.66
10652;BME280;5374;42.742;23.266;2023-02-20T10:44:01;96074.84;;;14.37;37.72
10652;BME280;5374;42.742;23.266;2023-02-20T10:46:56;96087.81;;;14.56;38.33
10652;BME280;5374;42.742;23.266;2023-02-20T10:49:50;96069.13;;;14.61;37.92
10652;BME280;5374;42.742;23.266;2023-02-20T10:52:44;96054.34;;;14.48;38.47
10652;BME280;5374;42.742;23.266;2023-02-20T10:55:35;96048.19;;;14.43;37.75
10652;BME280;5374;42.742;23.266;2023-02-20T10:58:31;96036.34;;;14.33;37.89
10652;BME280;5374;42.742;23.266;2023-02-20T11:01:22;96059.78;;;14.58;38.15
10652;BME280;5374;42.742;23.266;2023-02-20T11:04:14;96068.56;;;14.54;38.23
10652;BME280;5374;42.742;23.266;2023-02-20T11:07:06;96064.00;;;14.54;38.95
10652;BME280;5374;42.742;23.266;2023-02-20T11:09:54;96052.03;;;14.62;38.57
10652;BME280;5374;42.742;23.266;2023-02-20T11:12:43;96035.47;;;14.70;38.89
10652;BME280;5374;42.742;23.266;2023-02-20T11:15:33;96052.06;;;14.72;37.92
10652;BME280;5374;42.742;23.266;2023-02-20T11:18:23;96043.56;;;14.80;37.95
10652;BME280;5374;42.742;23.266;2023-02-20T11:21:32;96043.03;;;14.83;38.29
10652;BME280;5374;42.742;23.266;2023-02-20T11:24:27;96045.50;;;14.90;38.35
10652;BME280;5374;42.742;23.266;2023-02-20T11:27:15;96044.47;;;15.06;37.73
10652;BME280;5374;42.742;23.266;2023-02-20T11:30:21;96042.38;;;15.13;37.25
10652;BME280;5374;42.742;23.266;2023-02-20T11:33:12;96057.56;;;15.02;37.48
10652;BME280;5374;42.742;23.266;2023-02-20T11:36:09;96050.63;;;15.17;37.03
10652;BME280;5374;42.742;23.266;2023-02-20T11:39:00;96060.28;;;15.23;37.14
10652;BME280;5374;42.742;23.266;2023-02-20T11:42:02;96065.88;;;15.16;36.94
10652;BME280;5374;42.742;23.266;2023-02-20T11:45:11;96055.44;;;15.10;37.14
10652;BME280;5374;42.742;23.266;2023-02-20T11:48:07;96060.53;;;15.06;37.28
10652;BME280;5374;42.742;23.266;2023-02-20T11:50:55;96067.47;;;15.07;36.90
10652;BME280;5374;42.742;23.266;2023-02-20T11:53:42;96054.38;;;15.16;36.49
10652;BME280;5374;42.742;23.266;2023-02-20T11:56:30;96057.59;;;15.13;36.59
10652;BME280;5374;42.742;23.266;2023-02-20T11:59:31;96055.72;;;15.08;36.41
10652;BME280;5374;42.742;23.266;2023-02-20T12:02:25;96042.84;;;15.00;36.48
10652;BME280;5374;42.742;23.266;2023-02-20T12:05:14;96040.94;;;14.90;36.81
10652;BME280;5374;42.742;23.266;2023-02-20T12:08:01;96040.94;;;14.95;36.81
10652;BME280;5374;42.742;23.266;2023-02-20T12:10:51;96027.53;;;14.80;36.65
10652;BME280;5374;42.742;23.266;2023-02-20T12:13:43;96035.38;;;15.07;36.74
10652;BME280;5374;42.742;23.266;2023-02-20T12:16:41;96036.66;;;14.89;36.19
10652;BME280;5374;42.742;23.266;2023-02-20T12:19:39;96033.69;;;14.86;36.51
10652;BME280;5374;42.742;23.266;2023-02-20T12:22:33;96035.03;;;14.93;36.26
10652;BME280;5374;42.742;23.266;2023-02-20T12:25:23;96039.84;;;14.91;35.95
10652;BME280;5374;42.742;23.266;2023-02-20T12:28:18;96040.09;;;14.80;36.28
10652;BME280;5374;42.742;23.266;2023-02-20T12:31:20;96052.34;;;14.76;36.37
10652;BME280;5374;42.742;23.266;2023-02-20T12:34:23;96060.13;;;14.77;36.64
10652;BME280;5374;42.742;23.266;2023-02-20T12:37:18;96062.22;;;14.65;36.22
10652;BME280;5374;42.742;23.266;2023-02-20T12:40:26;96062.75;;;14.67;36.01
10652;BME280;5374;42.742;23.266;2023-02-20T12:43:25;96064.38;;;14.73;36.80
10652;BME280;5374;42.742;23.266;2023-02-20T12:46:20;96031.81;;;14.81;36.42
10652;BME280;5374;42.742;23.266;2023-02-20T12:49:17;96045.69;;;14.78;36.17
10652;BME280;5374;42.742;23.266;2023-02-20T12:52:23;96030.16;;;14.75;36.42
10652;BME280;5374;42.742;23.266;2023-02-20T12:55:22;96028.84;;;14.78;36.53
10652;BME280;5374;42.742;23.266;2023-02-20T12:58:30;96032.91;;;14.85;36.58
10652;BME280;5374;42.742;23.266;2023-02-20T13:01:22;96040.88;;;14.80;36.60
10652;BME280;5374;42.742;23.266;2023-02-20T13:04:18;96030.69;;;14.72;36.91
10652;BME280;5374;42.742;23.266;2023-02-20T13:07:14;96053.38;;;14.69;36.99
10652;BME280;5374;42.742;23.266;2023-02-20T13:10:07;96044.06;;;14.67;36.99
10652;BME280;5374;42.742;23.266;2023-02-20T13:12:59;96048.00;;;14.59;37.44
10652;BME280;5374;42.742;23.266;2023-02-20T13:15:53;96054.69;;;14.57;37.18
10652;BME280;5374;42.742;23.266;2023-02-20T13:18:48;96056.88;;;14.28;37.60
10652;BME280;5374;42.742;23.266;2023-02-20T13:21:37;96044.78;;;14.15;38.05
10652;BME280;5374;42.742;23.266;2023-02-20T13:24:32;96047.66;;;14.09;38.39
10652;BME280;5374;42.742;23.266;2023-02-20T13:27:28;96053.50;;;14.06;38.72
10652;BME280;5374;42.742;23.266;2023-02-20T13:30:19;96051.13;;;14.09;38.73
10652;BME280;5374;42.742;23.266;2023-02-20T13:33:11;96048.00;;;14.17;38.83
10652;BME280;5374;42.742;23.266;2023-02-20T13:36:00;96055.44;;;14.10;38.25
10652;BME280;5374;42.742;23.266;2023-02-20T13:42:33;96060.66;;;13.95;39.05
10652;BME280;5374;42.742;23.266;2023-02-20T13:45:39;96058.66;;;13.80;39.04
10652;BME280;5374;42.742;23.266;2023-02-20T13:48:41;96054.75;;;13.61;39.28
10652;BME280;5374;42.742;23.266;2023-02-20T13:51:32;96057.34;;;13.51;39.66
10652;BME280;5374;42.742;23.266;2023-02-20T13:54:29;96044.13;;;13.39;40.00
10652;BME280;5374;42.742;23.266;2023-02-20T13:57:19;96058.47;;;13.33;40.42
10652;BME280;5374;42.742;23.266;2023-02-20T14:00:21;96038.66;;;13.24;40.43
10652;BME280;5374;42.742;23.266;2023-02-20T14:03:11;96044.06;;;13.29;40.34
10652;BME280;5374;42.742;23.266;2023-02-20T14:06:05;96045.66;;;13.30;40.05
10652;BME280;5374;42.742;23.266;2023-02-20T14:09:07;96052.81;;;13.24;40.47
10652;BME280;5374;42.742;23.266;2023-02-20T14:12:03;96053.38;;;13.05;40.73
10652;BME280;5374;42.742;23.266;2023-02-20T14:14:52;96062.91;;;13.00;41.16
10652;BME280;5374;42.742;23.266;2023-02-20T14:17:41;96054.53;;;12.92;41.33
10652;BME280;5374;42.742;23.266;2023-02-20T14:20:32;96060.41;;;12.94;41.18
10652;BME280;5374;42.742;23.266;2023-02-20T14:23:24;96063.22;;;13.04;41.38
10652;BME280;5374;42.742;23.266;2023-02-20T14:26:20;96078.59;;;12.97;41.87
10652;BME280;5374;42.742;23.266;2023-02-20T14:29:19;96070.28;;;12.72;42.39
10652;BME280;5374;42.742;23.266;2023-02-20T14:32:12;96072.81;;;12.61;43.11
10652;BME280;5374;42.742;23.266;2023-02-20T14:35:03;96066.47;;;12.46;43.20
10652;BME280;5374;42.742;23.266;2023-02-20T14:38:00;96070.00;;;12.51;43.15
10652;BME280;5374;42.742;23.266;2023-02-20T14:40:50;96071.69;;;12.57;43.04
10652;BME280;5374;42.742;23.266;2023-02-20T14:43:39;96075.19;;;12.58;43.38
10652;BME280;5374;42.742;23.266;2023-02-20T14:46:27;96084.94;;;12.52;43.26
10652;BME280;5374;42.742;23.266;2023-02-20T14:49:22;96087.94;;;12.56;43.38
10652;BME280;5374;42.742;23.266;2023-02-20T14:52:15;96093.25;;;12.56;43.39
10652;BME280;5374;42.742;23.266;2023-02-20T14:55:05;96095.03;;;12.50;43.29
10652;BME280;5374;42.742;23.266;2023-02-20T14:57:52;96091.19;;;12.41;43.75
10652;BME280;5374;42.742;23.266;2023-02-20T15:00:41;96101.09;;;12.46;43.46
10652;BME280;5374;42.742;23.266;2023-02-20T15:03:29;96104.13;;;12.32;43.97
10652;BME280;5374;42.742;23.266;2023-02-20T15:06:19;96102.59;;;12.37;43.71
10652;BME280;5374;42.742;23.266;2023-02-20T15:09:07;96099.19;;;12.24;44.29
10652;BME280;5374;42.742;23.266;2023-02-20T15:11:56;96098.56;;;12.17;44.49
10652;BME280;5374;42.742;23.266;2023-02-20T15:14:43;96098.16;;;12.09;44.65
10652;BME280;5374;42.742;23.266;2023-02-20T15:17:33;96089.19;;;11.98;44.82
10652;BME280;5374;42.742;23.266;2023-02-20T15:20:36;96108.56;;;11.93;45.14